sensor_id;sensor_type;location;lat;lon;timestamp;P1;durP1;ratioP1;P2;durP2;ratioP2
6679;SDS011;3376;42.664;23.346;2023-04-25T00:01:20;3.20;;;3.03;;
6679;SDS011;3376;42.664;23.346;2023-04-25T00:03:47;2.87;;;2.70;;
6679;SDS011;3376;42.664;23.346;2023-04-25T00:06:14;2.87;;;2.77;;
6679;SDS011;3376;42.664;23.346;2023-04-25T00:08:44;3.47;;;3.20;;
6679;SDS011;3376;42.664;23.346;2023-04-25T00:11:10;3.50;;;3.30;;
6679;SDS011;3376;42.664;23.346;2023-04-25T00:13:37;3.73;;;3.53;;
6679;SDS011;3376;42.664;23.346;2023-04-25T00:16:06;4.00;;;3.80;;
6679;SDS011;3376;42.664;23.346;2023-04-25T00:18:33;3.60;;;3.50;;
6679;SDS011;3376;42.664;23.346;2023-04-25T00:21:00;4.27;;;4.07;;
6679;SDS011;3376;42.664;23.346;2023-04-25T00:23:27;4.00;;;3.80;;
6679;SDS011;3376;42.664;23.346;2023-04-25T00:25:56;5.07;;;4.80;;
6679;SDS011;3376;42.664;23.346;2023-04-25T00:28:22;4.27;;;4.17;;
6679;SDS011;3376;42.664;23.346;2023-04-25T00:30:49;4.70;;;4.30;;
6679;SDS011;3376;42.664;23.346;2023-04-25T00:33:16;4.37;;;4.17;;
6679;SDS011;3376;42.664;23.346;2023-04-25T00:35:43;4.67;;;4.37;;
6679;SDS011;3376;42.664;23.346;2023-04-25T00:38:09;4.27;;;4.03;;
6679;SDS011;3376;42.664;23.346;2023-04-25T00:40:36;4.33;;;4.13;;
6679;SDS011;3376;42.664;23.346;2023-04-25T00:43:05;5.27;;;4.73;;
6679;SDS011;3376;42.664;23.346;2023-04-25T00:45:32;4.23;;;4.03;;
6679;SDS011;3376;42.664;23.346;2023-04-25T00:48:04;4.23;;;3.97;;
6679;SDS011;3376;42.664;23.346;2023-04-25T00:50:32;4.90;;;4.60;;
6679;SDS011;3376;42.664;23.346;2023-04-25T00:52:59;5.03;;;4.63;;
6679;SDS011;3376;42.664;23.346;2023-04-25T00:55:28;4.93;;;4.73;;
6679;SDS011;3376;42.664;23.346;2023-04-25T00:57:56;4.87;;;4.67;;
6679;SDS011;3376;42.664;23.346;2023-04-25T01:00:24;4.07;;;3.80;;
6679;SDS011;3376;42.664;23.346;2023-04-25T01:02:51;4.07;;;3.87;;
6679;SDS011;3376;42.664;23.346;2023-04-25T01:05:18;4.70;;;4.47;;
6679;SDS011;3376;42.664;23.346;2023-04-25T01:07:45;5.20;;;4.80;;
6679;SDS011;3376;42.664;23.346;2023-04-25T01:10:12;4.87;;;4.57;;
6679;SDS011;3376;42.664;23.346;2023-04-25T01:12:39;4.73;;;4.47;;
6679;SDS011;3376;42.664;23.346;2023-04-25T01:15:06;4.83;;;4.63;;
6679;SDS011;3376;42.664;23.346;2023-04-25T01:17:35;5.07;;;4.87;;
6679;SDS011;3376;42.664;23.346;2023-04-25T01:20:02;4.33;;;4.13;;
6679;SDS011;3376;42.664;23.346;2023-04-25T01:22:31;4.77;;;4.47;;
6679;SDS011;3376;42.664;23.346;2023-04-25T01:24:58;3.93;;;3.73;;
6679;SDS011;3376;42.664;23.346;2023-04-25T01:27:25;3.67;;;3.57;;
6679;SDS011;3376;42.664;23.346;2023-04-25T01:29:53;4.40;;;4.00;;
6679;SDS011;3376;42.664;23.346;2023-04-25T01:32:20;4.47;;;4.13;;
6679;SDS011;3376;42.664;23.346;2023-04-25T01:34:48;4.33;;;3.93;;
6679;SDS011;3376;42.664;23.346;2023-04-25T01:37:16;3.40;;;3.30;;
6679;SDS011;3376;42.664;23.346;2023-04-25T01:39:44;4.50;;;4.20;;
6679;SDS011;3376;42.664;23.346;2023-04-25T01:42:11;4.00;;;3.80;;
6679;SDS011;3376;42.664;23.346;2023-04-25T01:44:39;3.80;;;3.70;;
6679;SDS011;3376;42.664;23.346;2023-04-25T01:47:05;3.43;;;3.33;;
6679;SDS011;3376;42.664;23.346;2023-04-25T01:49:32;4.00;;;3.80;;
6679;SDS011;3376;42.664;23.346;2023-04-25T01:51:59;3.70;;;3.60;;
6679;SDS011;3376;42.664;23.346;2023-04-25T01:54:26;4.10;;;3.90;;
6679;SDS011;3376;42.664;23.346;2023-04-25T01:56:54;4.50;;;4.23;;
6679;SDS011;3376;42.664;23.346;2023-04-25T01:59:23;3.73;;;3.63;;
6679;SDS011;3376;42.664;23.346;2023-04-25T02:01:50;11.30;;;10.43;;
6679;SDS011;3376;42.664;23.346;2023-04-25T02:04:17;5.10;;;4.90;;
6679;SDS011;3376;42.664;23.346;2023-04-25T02:06:44;4.67;;;4.47;;
6679;SDS011;3376;42.664;23.346;2023-04-25T02:09:10;4.87;;;4.47;;
6679;SDS011;3376;42.664;23.346;2023-04-25T02:11:37;4.63;;;4.43;;
6679;SDS011;3376;42.664;23.346;2023-04-25T02:14:05;4.60;;;4.30;;
6679;SDS011;3376;42.664;23.346;2023-04-25T02:16:32;4.67;;;4.43;;
6679;SDS011;3376;42.664;23.346;2023-04-25T02:19:00;5.13;;;4.93;;
6679;SDS011;3376;42.664;23.346;2023-04-25T02:21:27;5.73;;;5.43;;
6679;SDS011;3376;42.664;23.346;2023-04-25T02:23:54;4.50;;;4.10;;
6679;SDS011;3376;42.664;23.346;2023-04-25T02:26:20;5.73;;;5.27;;
6679;SDS011;3376;42.664;23.346;2023-04-25T02:28:48;6.00;;;5.63;;
6679;SDS011;3376;42.664;23.346;2023-04-25T02:31:16;5.30;;;4.90;;
6679;SDS011;3376;42.664;23.346;2023-04-25T02:33:43;5.90;;;5.60;;
6679;SDS011;3376;42.664;23.346;2023-04-25T02:36:10;7.20;;;6.00;;
6679;SDS011;3376;42.664;23.346;2023-04-25T02:38:37;5.93;;;5.47;;
6679;SDS011;3376;42.664;23.346;2023-04-25T02:41:04;5.70;;;5.30;;
6679;SDS011;3376;42.664;23.346;2023-04-25T02:43:31;7.10;;;6.47;;
6679;SDS011;3376;42.664;23.346;2023-04-25T02:45:58;6.10;;;5.77;;
6679;SDS011;3376;42.664;23.346;2023-04-25T02:48:26;5.57;;;5.37;;
6679;SDS011;3376;42.664;23.346;2023-04-25T02:50:53;5.83;;;5.53;;
6679;SDS011;3376;42.664;23.346;2023-04-25T02:53:20;5.77;;;5.47;;
6679;SDS011;3376;42.664;23.346;2023-04-25T02:55:47;6.00;;;5.70;;
6679;SDS011;3376;42.664;23.346;2023-04-25T02:58:13;6.20;;;5.80;;
6679;SDS011;3376;42.664;23.346;2023-04-25T03:00:40;6.37;;;6.07;;
6679;SDS011;3376;42.664;23.346;2023-04-25T03:03:07;7.00;;;6.57;;
6679;SDS011;3376;42.664;23.346;2023-04-25T03:05:35;10.10;;;9.40;;
6679;SDS011;3376;42.664;23.346;2023-04-25T03:08:02;7.90;;;7.07;;
6679;SDS011;3376;42.664;23.346;2023-04-25T03:10:29;7.10;;;6.60;;
6679;SDS011;3376;42.664;23.346;2023-04-25T03:12:56;6.23;;;5.93;;
6679;SDS011;3376;42.664;23.346;2023-04-25T03:15:22;5.90;;;5.60;;
6679;SDS011;3376;42.664;23.346;2023-04-25T03:17:49;6.40;;;6.10;;
6679;SDS011;3376;42.664;23.346;2023-04-25T03:20:16;6.27;;;5.97;;
6679;SDS011;3376;42.664;23.346;2023-04-25T03:22:44;6.40;;;6.10;;
6679;SDS011;3376;42.664;23.346;2023-04-25T03:25:11;6.37;;;6.07;;
6679;SDS011;3376;42.664;23.346;2023-04-25T03:27:38;6.73;;;6.43;;
6679;SDS011;3376;42.664;23.346;2023-04-25T03:30:05;6.83;;;6.43;;
6679;SDS011;3376;42.664;23.346;2023-04-25T03:32:32;5.53;;;5.33;;
6679;SDS011;3376;42.664;23.346;2023-04-25T03:34:59;5.80;;;5.50;;
6679;SDS011;3376;42.664;23.346;2023-04-25T03:37:26;6.67;;;6.00;;
6679;SDS011;3376;42.664;23.346;2023-04-25T03:39:54;6.03;;;5.83;;
6679;SDS011;3376;42.664;23.346;2023-04-25T03:42:21;5.97;;;5.73;;
6679;SDS011;3376;42.664;23.346;2023-04-25T03:44:48;6.10;;;5.80;;
6679;SDS011;3376;42.664;23.346;2023-04-25T03:47:15;6.23;;;5.93;;
6679;SDS011;3376;42.664;23.346;2023-04-25T03:49:42;6.57;;;6.27;;
6679;SDS011;3376;42.664;23.346;2023-04-25T03:52:09;7.70;;;7.13;;
6679;SDS011;3376;42.664;23.346;2023-04-25T03:54:36;6.83;;;6.50;;
6679;SDS011;3376;42.664;23.346;2023-04-25T03:57:04;6.37;;;6.07;;
6679;SDS011;3376;42.664;23.346;2023-04-25T03:59:31;6.10;;;5.80;;
6679;SDS011;3376;42.664;23.346;2023-04-25T04:01:57;7.50;;;7.10;;
6679;SDS011;3376;42.664;23.346;2023-04-25T04:04:24;6.73;;;6.23;;
6679;SDS011;3376;42.664;23.346;2023-04-25T04:06:51;6.13;;;5.93;;
6679;SDS011;3376;42.664;23.346;2023-04-25T04:09:18;7.33;;;6.93;;
6679;SDS011;3376;42.664;23.346;2023-04-25T04:11:45;7.93;;;7.53;;
6679;SDS011;3376;42.664;23.346;2023-04-25T04:14:13;7.33;;;7.03;;
6679;SDS011;3376;42.664;23.346;2023-04-25T04:16:40;7.03;;;6.73;;
6679;SDS011;3376;42.664;23.346;2023-04-25T04:19:07;6.17;;;5.87;;
6679;SDS011;3376;42.664;23.346;2023-04-25T04:21:33;6.70;;;6.40;;
6679;SDS011;3376;42.664;23.346;2023-04-25T04:24:00;6.40;;;6.13;;
6679;SDS011;3376;42.664;23.346;2023-04-25T04:26:27;6.97;;;6.57;;
6679;SDS011;3376;42.664;23.346;2023-04-25T04:28:54;6.60;;;6.30;;
6679;SDS011;3376;42.664;23.346;2023-04-25T04:31:22;6.23;;;6.03;;
6679;SDS011;3376;42.664;23.346;2023-04-25T04:33:49;5.40;;;5.20;;
6679;SDS011;3376;42.664;23.346;2023-04-25T04:36:16;5.47;;;5.27;;
6679;SDS011;3376;42.664;23.346;2023-04-25T04:38:45;6.27;;;5.67;;
6679;SDS011;3376;42.664;23.346;2023-04-25T04:41:11;5.20;;;5.00;;
6679;SDS011;3376;42.664;23.346;2023-04-25T04:43:38;5.93;;;5.60;;
6679;SDS011;3376;42.664;23.346;2023-04-25T04:46:05;5.00;;;4.80;;
6679;SDS011;3376;42.664;23.346;2023-04-25T04:48:33;6.13;;;5.73;;
6679;SDS011;3376;42.664;23.346;2023-04-25T04:51:00;6.27;;;5.73;;
6679;SDS011;3376;42.664;23.346;2023-04-25T04:53:27;6.27;;;6.07;;
6679;SDS011;3376;42.664;23.346;2023-04-25T04:55:54;5.50;;;5.30;;
6679;SDS011;3376;42.664;23.346;2023-04-25T04:58:21;5.60;;;5.33;;
6679;SDS011;3376;42.664;23.346;2023-04-25T05:00:48;6.10;;;5.80;;
6679;SDS011;3376;42.664;23.346;2023-04-25T05:03:15;6.07;;;5.67;;
6679;SDS011;3376;42.664;23.346;2023-04-25T05:05:43;5.93;;;5.57;;
6679;SDS011;3376;42.664;23.346;2023-04-25T05:08:10;6.23;;;6.03;;
6679;SDS011;3376;42.664;23.346;2023-04-25T05:10:37;6.60;;;6.30;;
6679;SDS011;3376;42.664;23.346;2023-04-25T05:13:04;6.40;;;6.20;;
6679;SDS011;3376;42.664;23.346;2023-04-25T05:15:31;7.20;;;6.80;;
6679;SDS011;3376;42.664;23.346;2023-04-25T05:17:57;7.77;;;7.37;;
6679;SDS011;3376;42.664;23.346;2023-04-25T05:20:24;7.70;;;7.33;;
6679;SDS011;3376;42.664;23.346;2023-04-25T05:22:52;8.03;;;7.63;;
6679;SDS011;3376;42.664;23.346;2023-04-25T05:25:19;8.27;;;7.87;;
6679;SDS011;3376;42.664;23.346;2023-04-25T05:27:46;9.07;;;8.57;;
6679;SDS011;3376;42.664;23.346;2023-04-25T05:30:13;9.57;;;8.97;;
6679;SDS011;3376;42.664;23.346;2023-04-25T05:32:40;9.87;;;9.17;;
6679;SDS011;3376;42.664;23.346;2023-04-25T05:35:07;9.27;;;8.80;;
6679;SDS011;3376;42.664;23.346;2023-04-25T05:37:34;9.10;;;8.60;;
6679;SDS011;3376;42.664;23.346;2023-04-25T05:40:03;9.33;;;8.83;;
6679;SDS011;3376;42.664;23.346;2023-04-25T05:42:31;9.17;;;8.43;;
6679;SDS011;3376;42.664;23.346;2023-04-25T05:44:58;8.87;;;8.27;;
6679;SDS011;3376;42.664;23.346;2023-04-25T05:47:25;8.43;;;7.83;;
6679;SDS011;3376;42.664;23.346;2023-04-25T05:49:52;9.47;;;8.60;;
6679;SDS011;3376;42.664;23.346;2023-04-25T05:52:19;9.20;;;8.70;;
6679;SDS011;3376;42.664;23.346;2023-04-25T05:54:46;9.17;;;8.57;;
6679;SDS011;3376;42.664;23.346;2023-04-25T05:57:19;6.90;;;6.60;;
6679;SDS011;3376;42.664;23.346;2023-04-25T05:59:47;6.87;;;6.37;;
6679;SDS011;3376;42.664;23.346;2023-04-25T06:02:14;7.33;;;6.83;;
6679;SDS011;3376;42.664;23.346;2023-04-25T06:04:41;7.10;;;6.73;;
6679;SDS011;3376;42.664;23.346;2023-04-25T06:07:08;6.87;;;6.27;;
6679;SDS011;3376;42.664;23.346;2023-04-25T06:09:34;7.13;;;6.73;;
6679;SDS011;3376;42.664;23.346;2023-04-25T06:12:01;6.57;;;6.07;;
6679;SDS011;3376;42.664;23.346;2023-04-25T06:14:29;7.10;;;6.50;;
6679;SDS011;3376;42.664;23.346;2023-04-25T06:16:56;6.60;;;6.20;;
6679;SDS011;3376;42.664;23.346;2023-04-25T06:19:23;4.57;;;4.30;;
6679;SDS011;3376;42.664;23.346;2023-04-25T06:21:50;5.30;;;5.00;;
6679;SDS011;3376;42.664;23.346;2023-04-25T06:24:17;5.10;;;4.70;;
6679;SDS011;3376;42.664;23.346;2023-04-25T06:26:44;5.57;;;5.17;;
6679;SDS011;3376;42.664;23.346;2023-04-25T06:29:12;6.03;;;5.63;;
6679;SDS011;3376;42.664;23.346;2023-04-25T06:31:40;6.33;;;6.03;;
6679;SDS011;3376;42.664;23.346;2023-04-25T06:34:07;6.40;;;6.10;;
6679;SDS011;3376;42.664;23.346;2023-04-25T06:36:34;6.47;;;6.17;;
6679;SDS011;3376;42.664;23.346;2023-04-25T06:39:00;6.43;;;6.13;;
6679;SDS011;3376;42.664;23.346;2023-04-25T06:41:27;6.40;;;5.87;;
6679;SDS011;3376;42.664;23.346;2023-04-25T06:43:54;5.43;;;5.23;;
6679;SDS011;3376;42.664;23.346;2023-04-25T06:46:21;5.20;;;5.00;;
6679;SDS011;3376;42.664;23.346;2023-04-25T06:48:49;5.63;;;4.87;;
6679;SDS011;3376;42.664;23.346;2023-04-25T06:51:16;5.77;;;5.43;;
6679;SDS011;3376;42.664;23.346;2023-04-25T06:53:43;6.20;;;5.70;;
6679;SDS011;3376;42.664;23.346;2023-04-25T06:56:09;3.67;;;3.47;;
6679;SDS011;3376;42.664;23.346;2023-04-25T06:58:36;4.43;;;4.13;;
6679;SDS011;3376;42.664;23.346;2023-04-25T07:01:03;4.10;;;3.90;;
6679;SDS011;3376;42.664;23.346;2023-04-25T07:03:30;4.30;;;4.10;;
6679;SDS011;3376;42.664;23.346;2023-04-25T07:05:58;5.37;;;4.20;;
6679;SDS011;3376;42.664;23.346;2023-04-25T07:08:25;5.33;;;4.93;;
6679;SDS011;3376;42.664;23.346;2023-04-25T07:10:51;5.73;;;5.37;;
6679;SDS011;3376;42.664;23.346;2023-04-25T07:13:18;5.47;;;5.07;;
6679;SDS011;3376;42.664;23.346;2023-04-25T07:15:45;4.50;;;4.30;;
6679;SDS011;3376;42.664;23.346;2023-04-25T07:18:13;5.30;;;4.80;;
6679;SDS011;3376;42.664;23.346;2023-04-25T07:20:40;4.90;;;4.70;;
6679;SDS011;3376;42.664;23.346;2023-04-25T07:23:08;6.40;;;5.07;;
6679;SDS011;3376;42.664;23.346;2023-04-25T07:25:35;4.13;;;3.90;;
6679;SDS011;3376;42.664;23.346;2023-04-25T07:28:01;4.87;;;4.43;;
6679;SDS011;3376;42.664;23.346;2023-04-25T07:30:29;4.70;;;4.40;;
6679;SDS011;3376;42.664;23.346;2023-04-25T07:32:56;4.90;;;4.53;;
6679;SDS011;3376;42.664;23.346;2023-04-25T07:35:23;3.77;;;3.67;;
6679;SDS011;3376;42.664;23.346;2023-04-25T07:37:49;4.60;;;4.30;;
6679;SDS011;3376;42.664;23.346;2023-04-25T07:40:18;4.67;;;4.37;;
6679;SDS011;3376;42.664;23.346;2023-04-25T07:42:44;5.03;;;4.60;;
6679;SDS011;3376;42.664;23.346;2023-04-25T07:45:11;4.47;;;4.27;;
6679;SDS011;3376;42.664;23.346;2023-04-25T07:47:38;5.13;;;4.90;;
6679;SDS011;3376;42.664;23.346;2023-04-25T07:50:05;4.70;;;4.40;;
6679;SDS011;3376;42.664;23.346;2023-04-25T07:52:32;4.57;;;4.37;;
6679;SDS011;3376;42.664;23.346;2023-04-25T07:54:59;4.90;;;4.50;;
6679;SDS011;3376;42.664;23.346;2023-04-25T07:57:27;4.53;;;4.27;;
6679;SDS011;3376;42.664;23.346;2023-04-25T07:59:55;4.67;;;4.37;;
6679;SDS011;3376;42.664;23.346;2023-04-25T08:02:22;4.40;;;4.07;;
6679;SDS011;3376;42.664;23.346;2023-04-25T08:04:48;6.40;;;4.47;;
6679;SDS011;3376;42.664;23.346;2023-04-25T08:07:15;4.70;;;4.40;;
6679;SDS011;3376;42.664;23.346;2023-04-25T08:09:42;5.37;;;4.70;;
6679;SDS011;3376;42.664;23.346;2023-04-25T08:12:09;4.53;;;4.30;;
6679;SDS011;3376;42.664;23.346;2023-04-25T08:14:37;5.13;;;4.83;;
6679;SDS011;3376;42.664;23.346;2023-04-25T08:17:04;5.27;;;4.97;;
6679;SDS011;3376;42.664;23.346;2023-04-25T08:19:31;5.70;;;5.07;;
6679;SDS011;3376;42.664;23.346;2023-04-25T08:21:58;10.37;;;4.67;;
6679;SDS011;3376;42.664;23.346;2023-04-25T08:24:25;6.93;;;5.53;;
6679;SDS011;3376;42.664;23.346;2023-04-25T08:26:52;4.43;;;4.23;;
6679;SDS011;3376;42.664;23.346;2023-04-25T08:29:19;4.43;;;4.03;;
6679;SDS011;3376;42.664;23.346;2023-04-25T08:31:47;4.80;;;4.30;;
6679;SDS011;3376;42.664;23.346;2023-04-25T08:34:14;3.93;;;3.67;;
6679;SDS011;3376;42.664;23.346;2023-04-25T08:36:40;4.23;;;3.80;;
6679;SDS011;3376;42.664;23.346;2023-04-25T08:39:07;4.37;;;3.93;;
6679;SDS011;3376;42.664;23.346;2023-04-25T08:41:34;3.23;;;3.13;;
6679;SDS011;3376;42.664;23.346;2023-04-25T08:44:03;3.67;;;3.47;;
6679;SDS011;3376;42.664;23.346;2023-04-25T08:46:31;2.73;;;2.50;;
6679;SDS011;3376;42.664;23.346;2023-04-25T08:49:00;2.73;;;2.53;;
6679;SDS011;3376;42.664;23.346;2023-04-25T08:51:29;4.13;;;3.93;;
6679;SDS011;3376;42.664;23.346;2023-04-25T08:54:00;2.40;;;2.30;;
6679;SDS011;3376;42.664;23.346;2023-04-25T08:56:34;3.20;;;3.00;;
6679;SDS011;3376;42.664;23.346;2023-04-25T08:59:01;5.90;;;5.50;;
6679;SDS011;3376;42.664;23.346;2023-04-25T09:01:28;5.50;;;5.23;;
6679;SDS011;3376;42.664;23.346;2023-04-25T09:03:55;6.20;;;5.70;;
6679;SDS011;3376;42.664;23.346;2023-04-25T09:06:24;5.90;;;5.07;;
6679;SDS011;3376;42.664;23.346;2023-04-25T09:08:52;6.77;;;6.47;;
6679;SDS011;3376;42.664;23.346;2023-04-25T09:11:19;7.17;;;6.77;;
6679;SDS011;3376;42.664;23.346;2023-04-25T09:13:46;6.03;;;5.73;;
6679;SDS011;3376;42.664;23.346;2023-04-25T09:16:13;5.20;;;4.63;;
6679;SDS011;3376;42.664;23.346;2023-04-25T09:18:42;4.17;;;3.97;;
6679;SDS011;3376;42.664;23.346;2023-04-25T09:21:09;4.20;;;4.00;;
6679;SDS011;3376;42.664;23.346;2023-04-25T09:23:43;3.80;;;3.60;;
6679;SDS011;3376;42.664;23.346;2023-04-25T09:26:10;4.97;;;4.60;;
6679;SDS011;3376;42.664;23.346;2023-04-25T09:28:40;5.40;;;4.77;;
6679;SDS011;3376;42.664;23.346;2023-04-25T09:31:09;5.60;;;5.00;;
6679;SDS011;3376;42.664;23.346;2023-04-25T09:33:36;4.57;;;4.30;;
6679;SDS011;3376;42.664;23.346;2023-04-25T09:36:04;4.80;;;4.50;;
6679;SDS011;3376;42.664;23.346;2023-04-25T09:38:36;5.03;;;4.60;;
6679;SDS011;3376;42.664;23.346;2023-04-25T09:41:08;5.27;;;4.90;;
6679;SDS011;3376;42.664;23.346;2023-04-25T09:43:36;5.87;;;4.63;;
6679;SDS011;3376;42.664;23.346;2023-04-25T09:46:04;6.43;;;5.87;;
6679;SDS011;3376;42.664;23.346;2023-04-25T09:48:34;6.90;;;6.30;;
6679;SDS011;3376;42.664;23.346;2023-04-25T09:51:05;6.50;;;5.90;;
6679;SDS011;3376;42.664;23.346;2023-04-25T09:53:33;6.90;;;6.50;;
6679;SDS011;3376;42.664;23.346;2023-04-25T09:56:00;6.47;;;6.07;;
6679;SDS011;3376;42.664;23.346;2023-04-25T09:58:33;5.97;;;5.57;;
6679;SDS011;3376;42.664;23.346;2023-04-25T10:01:01;6.80;;;6.50;;
6679;SDS011;3376;42.664;23.346;2023-04-25T10:03:32;7.37;;;6.90;;
6679;SDS011;3376;42.664;23.346;2023-04-25T10:06:01;5.70;;;5.20;;
6679;SDS011;3376;42.664;23.346;2023-04-25T10:08:30;5.30;;;5.10;;
6679;SDS011;3376;42.664;23.346;2023-04-25T10:11:00;5.30;;;4.80;;
6679;SDS011;3376;42.664;23.346;2023-04-25T10:13:28;6.27;;;5.40;;
6679;SDS011;3376;42.664;23.346;2023-04-25T10:15:58;6.43;;;5.03;;
6679;SDS011;3376;42.664;23.346;2023-04-25T10:18:26;6.43;;;5.77;;
6679;SDS011;3376;42.664;23.346;2023-04-25T10:20:54;7.93;;;5.20;;
6679;SDS011;3376;42.664;23.346;2023-04-25T10:23:21;1.83;;;1.57;;
6679;SDS011;3376;42.664;23.346;2023-04-25T10:25:49;2.03;;;1.93;;
6679;SDS011;3376;42.664;23.346;2023-04-25T10:28:17;1.00;;;1.00;;
6679;SDS011;3376;42.664;23.346;2023-04-25T10:30:57;0.80;;;0.80;;
6679;SDS011;3376;42.664;23.346;2023-04-25T10:33:34;1.40;;;1.30;;
6679;SDS011;3376;42.664;23.346;2023-04-25T10:36:08;1.23;;;0.77;;
6679;SDS011;3376;42.664;23.346;2023-04-25T10:38:36;2.30;;;2.20;;
6679;SDS011;3376;42.664;23.346;2023-04-25T10:41:04;0.97;;;0.97;;
6679;SDS011;3376;42.664;23.346;2023-04-25T10:43:34;2.57;;;1.87;;
6679;SDS011;3376;42.664;23.346;2023-04-25T10:46:18;2.83;;;1.03;;
6679;SDS011;3376;42.664;23.346;2023-04-25T10:48:48;1.27;;;1.17;;
6679;SDS011;3376;42.664;23.346;2023-04-25T10:51:16;2.93;;;1.10;;
6679;SDS011;3376;42.664;23.346;2023-04-25T10:53:56;1.30;;;1.20;;
6679;SDS011;3376;42.664;23.346;2023-04-25T10:56:25;2.60;;;1.67;;
6679;SDS011;3376;42.664;23.346;2023-04-25T10:59:02;1.27;;;0.97;;
6679;SDS011;3376;42.664;23.346;2023-04-25T11:01:36;0.80;;;0.80;;
6679;SDS011;3376;42.664;23.346;2023-04-25T11:04:05;1.47;;;1.13;;
6679;SDS011;3376;42.664;23.346;2023-04-25T11:06:35;0.83;;;0.73;;
6679;SDS011;3376;42.664;23.346;2023-04-25T11:09:12;0.90;;;0.90;;
6679;SDS011;3376;42.664;23.346;2023-04-25T11:11:39;0.77;;;0.77;;
6679;SDS011;3376;42.664;23.346;2023-04-25T11:14:06;0.90;;;0.90;;
6679;SDS011;3376;42.664;23.346;2023-04-25T11:16:33;0.80;;;0.80;;
6679;SDS011;3376;42.664;23.346;2023-04-25T11:19:02;1.73;;;1.20;;
6679;SDS011;3376;42.664;23.346;2023-04-25T11:21:30;2.03;;;1.40;;
6679;SDS011;3376;42.664;23.346;2023-04-25T11:23:58;1.67;;;1.37;;
6679;SDS011;3376;42.664;23.346;2023-04-25T11:26:26;1.90;;;1.80;;
6679;SDS011;3376;42.664;23.346;2023-04-25T11:28:56;1.40;;;1.30;;
6679;SDS011;3376;42.664;23.346;2023-04-25T11:31:24;1.33;;;1.27;;
6679;SDS011;3376;42.664;23.346;2023-04-25T11:33:52;1.90;;;1.43;;
6679;SDS011;3376;42.664;23.346;2023-04-25T11:36:22;5.93;;;2.43;;
6679;SDS011;3376;42.664;23.346;2023-04-25T11:38:48;1.67;;;1.57;;
6679;SDS011;3376;42.664;23.346;2023-04-25T11:41:16;1.90;;;1.70;;
6679;SDS011;3376;42.664;23.346;2023-04-25T11:43:43;1.70;;;1.60;;
6679;SDS011;3376;42.664;23.346;2023-04-25T11:46:10;1.87;;;1.77;;
6679;SDS011;3376;42.664;23.346;2023-04-25T11:48:38;1.57;;;1.40;;
6679;SDS011;3376;42.664;23.346;2023-04-25T11:51:05;4.23;;;0.93;;
6679;SDS011;3376;42.664;23.346;2023-04-25T11:53:33;0.70;;;0.70;;
6679;SDS011;3376;42.664;23.346;2023-04-25T11:56:01;0.80;;;0.70;;
6679;SDS011;3376;42.664;23.346;2023-04-25T12:01:26;0.83;;;0.83;;
6679;SDS011;3376;42.664;23.346;2023-04-25T12:03:54;1.10;;;1.10;;
6679;SDS011;3376;42.664;23.346;2023-04-25T12:06:21;0.63;;;0.63;;
6679;SDS011;3376;42.664;23.346;2023-04-25T12:09:03;2.30;;;2.07;;
6679;SDS011;3376;42.664;23.346;2023-04-25T12:11:31;1.37;;;1.27;;
6679;SDS011;3376;42.664;23.346;2023-04-25T12:14:01;3.73;;;1.77;;
6679;SDS011;3376;42.664;23.346;2023-04-25T12:16:29;1.10;;;1.10;;
6679;SDS011;3376;42.664;23.346;2023-04-25T12:19:05;1.00;;;1.00;;
6679;SDS011;3376;42.664;23.346;2023-04-25T12:21:32;1.60;;;0.90;;
6679;SDS011;3376;42.664;23.346;2023-04-25T12:24:09;0.70;;;0.70;;
6679;SDS011;3376;42.664;23.346;2023-04-25T12:26:47;0.87;;;0.87;;
6679;SDS011;3376;42.664;23.346;2023-04-25T12:29:15;0.90;;;0.90;;
6679;SDS011;3376;42.664;23.346;2023-04-25T12:31:43;0.60;;;0.60;;
6679;SDS011;3376;42.664;23.346;2023-04-25T12:34:10;0.73;;;0.73;;
6679;SDS011;3376;42.664;23.346;2023-04-25T12:36:37;1.80;;;1.00;;
6679;SDS011;3376;42.664;23.346;2023-04-25T12:39:03;0.87;;;0.87;;
6679;SDS011;3376;42.664;23.346;2023-04-25T12:41:32;0.80;;;0.70;;
6679;SDS011;3376;42.664;23.346;2023-04-25T12:43:58;0.83;;;0.80;;
6679;SDS011;3376;42.664;23.346;2023-04-25T12:46:25;1.00;;;1.00;;
6679;SDS011;3376;42.664;23.346;2023-04-25T12:48:52;1.17;;;1.07;;
6679;SDS011;3376;42.664;23.346;2023-04-25T12:51:20;6.00;;;1.40;;
6679;SDS011;3376;42.664;23.346;2023-04-25T12:53:49;1.13;;;0.50;;
6679;SDS011;3376;42.664;23.346;2023-04-25T12:56:17;1.20;;;1.10;;
6679;SDS011;3376;42.664;23.346;2023-04-25T12:58:45;1.30;;;0.70;;
6679;SDS011;3376;42.664;23.346;2023-04-25T13:01:13;2.37;;;0.90;;
6679;SDS011;3376;42.664;23.346;2023-04-25T13:03:40;1.53;;;1.43;;
6679;SDS011;3376;42.664;23.346;2023-04-25T13:06:07;1.00;;;1.00;;
6679;SDS011;3376;42.664;23.346;2023-04-25T13:08:34;0.90;;;0.90;;
6679;SDS011;3376;42.664;23.346;2023-04-25T13:11:02;1.17;;;1.07;;
6679;SDS011;3376;42.664;23.346;2023-04-25T13:13:28;1.73;;;0.90;;
6679;SDS011;3376;42.664;23.346;2023-04-25T13:15:58;1.80;;;1.03;;
6679;SDS011;3376;42.664;23.346;2023-04-25T13:18:25;1.03;;;0.87;;
6679;SDS011;3376;42.664;23.346;2023-04-25T13:20:52;1.23;;;1.13;;
6679;SDS011;3376;42.664;23.346;2023-04-25T13:23:18;0.90;;;0.90;;
6679;SDS011;3376;42.664;23.346;2023-04-25T13:25:46;0.97;;;0.97;;
6679;SDS011;3376;42.664;23.346;2023-04-25T13:28:13;2.30;;;1.40;;
6679;SDS011;3376;42.664;23.346;2023-04-25T13:30:41;1.83;;;1.40;;
6679;SDS011;3376;42.664;23.346;2023-04-25T13:33:09;3.73;;;2.00;;
6679;SDS011;3376;42.664;23.346;2023-04-25T13:35:36;2.00;;;1.90;;
6679;SDS011;3376;42.664;23.346;2023-04-25T13:38:04;2.50;;;1.63;;
6679;SDS011;3376;42.664;23.346;2023-04-25T13:40:31;1.57;;;1.47;;
6679;SDS011;3376;42.664;23.346;2023-04-25T13:42:58;1.73;;;1.63;;
6679;SDS011;3376;42.664;23.346;2023-04-25T13:45:25;2.93;;;1.93;;
6679;SDS011;3376;42.664;23.346;2023-04-25T13:47:52;1.73;;;1.60;;
6679;SDS011;3376;42.664;23.346;2023-04-25T13:50:20;2.03;;;1.40;;
6679;SDS011;3376;42.664;23.346;2023-04-25T13:52:47;1.60;;;1.60;;
6679;SDS011;3376;42.664;23.346;2023-04-25T13:55:14;2.00;;;1.90;;
6679;SDS011;3376;42.664;23.346;2023-04-25T13:57:40;1.63;;;1.33;;
6679;SDS011;3376;42.664;23.346;2023-04-25T14:00:08;1.23;;;1.13;;
6679;SDS011;3376;42.664;23.346;2023-04-25T14:02:36;1.33;;;1.23;;
6679;SDS011;3376;42.664;23.346;2023-04-25T14:05:03;2.17;;;1.50;;
6679;SDS011;3376;42.664;23.346;2023-04-25T14:07:33;1.73;;;1.67;;
6679;SDS011;3376;42.664;23.346;2023-04-25T14:10:00;1.57;;;1.47;;
6679;SDS011;3376;42.664;23.346;2023-04-25T14:12:27;1.13;;;1.13;;
6679;SDS011;3376;42.664;23.346;2023-04-25T14:14:54;0.97;;;0.97;;
6679;SDS011;3376;42.664;23.346;2023-04-25T14:17:20;1.37;;;1.27;;
6679;SDS011;3376;42.664;23.346;2023-04-25T14:19:47;0.77;;;0.77;;
6679;SDS011;3376;42.664;23.346;2023-04-25T14:22:14;0.80;;;0.80;;
6679;SDS011;3376;42.664;23.346;2023-04-25T14:24:42;0.87;;;0.87;;
6679;SDS011;3376;42.664;23.346;2023-04-25T14:27:09;0.80;;;0.80;;
6679;SDS011;3376;42.664;23.346;2023-04-25T14:29:36;2.40;;;0.83;;
6679;SDS011;3376;42.664;23.346;2023-04-25T14:32:03;0.70;;;0.70;;
6679;SDS011;3376;42.664;23.346;2023-04-25T14:34:31;0.73;;;0.70;;
6679;SDS011;3376;42.664;23.346;2023-04-25T14:36:58;0.80;;;0.80;;
6679;SDS011;3376;42.664;23.346;2023-04-25T14:39:25;2.83;;;1.67;;
6679;SDS011;3376;42.664;23.346;2023-04-25T14:41:53;1.67;;;1.57;;
6679;SDS011;3376;42.664;23.346;2023-04-25T14:44:21;1.50;;;1.10;;
6679;SDS011;3376;42.664;23.346;2023-04-25T14:46:47;0.80;;;0.80;;
6679;SDS011;3376;42.664;23.346;2023-04-25T14:49:16;1.23;;;1.23;;
6679;SDS011;3376;42.664;23.346;2023-04-25T14:51:43;1.00;;;1.00;;
6679;SDS011;3376;42.664;23.346;2023-04-25T14:54:10;1.30;;;1.30;;
6679;SDS011;3376;42.664;23.346;2023-04-25T14:56:37;1.10;;;1.10;;
6679;SDS011;3376;42.664;23.346;2023-04-25T14:59:05;1.73;;;1.43;;
6679;SDS011;3376;42.664;23.346;2023-04-25T15:01:32;0.80;;;0.80;;
6679;SDS011;3376;42.664;23.346;2023-04-25T15:03:59;0.60;;;0.60;;
6679;SDS011;3376;42.664;23.346;2023-04-25T15:06:25;1.00;;;1.00;;